createdAt,value
2022-10-09T00:02:39.964Z,82.56
2022-10-09T00:07:41.501Z,82.70
2022-10-09T00:12:42.966Z,82.51
2022-10-09T00:17:44.389Z,82.47
2022-10-09T00:22:46.070Z,82.32
2022-10-09T00:27:48.120Z,82.06
2022-10-09T00:32:49.749Z,82.32
2022-10-09T00:37:51.401Z,81.42
2022-10-09T00:42:57.222Z,81.61
2022-10-09T00:48:04.801Z,81.64
2022-10-09T00:53:06.630Z,80.89
2022-10-09T00:58:08.524Z,81.78
2022-10-09T01:03:10.055Z,81.78
2022-10-09T01:08:19.093Z,81.65
2022-10-09T01:13:32.548Z,81.15
2022-10-09T01:18:45.501Z,80.97
2022-10-09T01:23:52.769Z,80.64
2022-10-09T01:29:00.123Z,81.63
2022-10-09T01:34:01.937Z,81.93
2022-10-09T01:39:05.879Z,82.34
2022-10-09T01:44:18.664Z,82.85
2022-10-09T01:50:04.131Z,81.80
2022-10-09T01:55:16.172Z,81.15
2022-10-09T02:00:18.396Z,81.85
2022-10-09T02:05:23.398Z,81.71
2022-10-09T02:10:25.901Z,82.06
2022-10-09T02:15:33.852Z,81.71
2022-10-09T02:20:39.474Z,82.44
2022-10-09T02:25:41.319Z,82.21
2022-10-09T02:31:13.538Z,82.55
2022-10-09T02:36:15.009Z,82.88
2022-10-09T02:41:16.448Z,82.80
2022-10-09T02:46:18.855Z,82.44
2022-10-09T02:51:20.336Z,82.58
2022-10-09T02:56:25.257Z,82.11
2022-10-09T03:01:26.755Z,81.78
2022-10-09T03:06:29.156Z,82.07
2022-10-09T03:11:30.618Z,82.49
2022-10-09T03:16:32.154Z,82.93
2022-10-09T03:21:33.638Z,82.78
2022-10-09T03:26:35.046Z,82.36
2022-10-09T03:31:53.297Z,82.54
2022-10-09T03:36:54.962Z,82.88
2022-10-09T03:41:56.456Z,83.35
2022-10-09T03:46:57.891Z,83.09
2022-10-09T03:51:59.452Z,83.04
2022-10-09T03:57:00.906Z,82.83
2022-10-09T04:02:02.358Z,82.09
2022-10-09T04:07:03.784Z,82.47
2022-10-09T04:12:05.283Z,83.13
2022-10-09T04:17:07.215Z,83.31
2022-10-09T04:22:08.667Z,82.65
2022-10-09T04:27:10.162Z,83.25
2022-10-09T04:32:11.625Z,83.25
2022-10-09T04:37:13.041Z,83.71
2022-10-09T04:42:14.533Z,83.91
2022-10-09T04:47:15.989Z,83.54
2022-10-09T04:52:17.450Z,83.28
2022-10-09T04:57:18.870Z,82.57
2022-10-09T05:02:20.322Z,83.12
2022-10-09T05:07:21.765Z,83.31
2022-10-09T05:12:23.301Z,83.23
2022-10-09T05:17:24.889Z,83.42
2022-10-09T05:22:26.366Z,83.73
2022-10-09T05:27:27.795Z,83.66
2022-10-09T05:32:29.194Z,83.33
2022-10-09T05:37:30.598Z,83.19
2022-10-09T05:42:32.017Z,83.20
2022-10-09T05:47:33.430Z,83.07
2022-10-09T05:52:38.615Z,82.95
2022-10-09T05:57:40.056Z,83.06
2022-10-09T06:02:41.597Z,82.39
2022-10-09T06:07:43.100Z,81.57
2022-10-09T06:12:44.496Z,80.91
2022-10-09T06:17:45.968Z,81.47
2022-10-09T06:22:47.583Z,81.27
2022-10-09T06:27:49.291Z,80.71
2022-10-09T06:32:51.147Z,80.55
2022-10-09T06:37:53.072Z,80.58
2022-10-09T06:42:54.518Z,80.55
2022-10-09T06:47:56.144Z,80.66
2022-10-09T06:52:57.560Z,80.21
2022-10-09T06:57:59.566Z,80.21
2022-10-09T07:03:01.071Z,79.81
2022-10-09T07:08:02.560Z,79.46
2022-10-09T07:13:04.013Z,79.39
2022-10-09T07:18:05.656Z,78.86
2022-10-09T07:23:07.144Z,78.49
2022-10-09T07:28:08.623Z,78.39
2022-10-09T07:33:10.165Z,78.54
2022-10-09T07:38:11.565Z,77.64
2022-10-09T07:43:12.977Z,77.88
2022-10-09T07:48:14.462Z,76.51
2022-10-09T07:53:15.862Z,75.53
2022-10-09T07:58:17.575Z,75.08
2022-10-09T08:03:19.013Z,75.22
2022-10-09T08:08:20.431Z,74.10
2022-10-09T08:13:22.146Z,74.45
2022-10-09T08:18:23.558Z,72.70
2022-10-09T08:23:25.101Z,73.53
2022-10-09T08:28:26.715Z,72.83
2022-10-09T08:33:28.199Z,72.08
2022-10-09T08:38:46.761Z,72.20
2022-10-09T08:43:56.149Z,72.17
2022-10-09T08:49:00.605Z,70.79
2022-10-09T08:54:12.575Z,70.19
2022-10-09T08:59:14.181Z,69.82
2022-10-09T09:04:34.742Z,69.80
2022-10-09T09:09:46.974Z,69.28
2022-10-09T09:15:10.092Z,69.81
2022-10-09T09:20:31.379Z,66.35
2022-10-09T09:25:35.990Z,67.58
2022-10-09T09:30:51.957Z,65.95
2022-10-09T09:36:09.090Z,65.65
2022-10-09T09:41:10.503Z,65.29
2022-10-09T09:46:17.614Z,65.65
2022-10-09T09:51:29.661Z,66.32
2022-10-09T09:57:07.050Z,66.26
2022-10-09T10:02:12.695Z,66.62
2022-10-09T10:07:14.197Z,66.40
2022-10-09T10:12:18.245Z,66.76
2022-10-09T10:17:28.364Z,65.54
2022-10-09T10:22:36.027Z,65.35
2022-10-09T10:27:41.810Z,63.90
2022-10-09T10:33:03.939Z,63.99
2022-10-09T10:38:29.704Z,63.57
2022-10-09T10:43:35.127Z,63.53
2022-10-09T10:48:47.087Z,61.32
2022-10-09T10:54:05.454Z,61.54
2022-10-09T10:59:33.340Z,61.55
2022-10-09T11:04:49.995Z,57.84
2022-10-09T11:10:19.874Z,59.83
2022-10-09T11:15:26.377Z,59.30
2022-10-09T11:20:39.447Z,58.04
2022-10-09T11:25:58.969Z,57.60
2022-10-09T11:31:16.924Z,56.92
2022-10-09T11:36:39.988Z,58.57
2022-10-09T11:41:45.234Z,58.50
2022-10-09T11:47:01.597Z,58.16
2022-10-09T11:52:16.998Z,57.52
2022-10-09T11:57:28.418Z,56.39
2022-10-09T12:02:31.297Z,55.01
2022-10-09T12:07:36.922Z,53.12
2022-10-09T12:12:38.855Z,53.30
2022-10-09T12:17:48.627Z,53.94
2022-10-09T12:23:21.271Z,55.05
2022-10-09T12:28:39.218Z,55.49
2022-10-09T12:33:45.719Z,55.52
2022-10-09T12:38:47.172Z,55.78
2022-10-09T12:43:50.998Z,55.57
2022-10-09T12:48:53.119Z,53.48
2022-10-09T12:53:55.087Z,53.84
2022-10-09T12:58:58.545Z,53.07
2022-10-09T13:04:04.195Z,50.76
2022-10-09T13:09:08.436Z,52.31
2022-10-09T13:14:26.637Z,53.56
2022-10-09T13:19:31.219Z,53.58
2022-10-09T13:24:32.747Z,53.36
2022-10-09T13:29:34.446Z,51.59
2022-10-09T13:34:35.912Z,51.70
2022-10-09T13:39:37.599Z,52.03
2022-10-09T13:44:39.015Z,51.43
2022-10-09T13:49:40.555Z,53.62
2022-10-09T13:54:42.437Z,54.68
2022-10-09T13:59:43.909Z,53.48
2022-10-09T14:04:45.708Z,53.71
2022-10-09T14:09:47.214Z,51.74
2022-10-09T14:14:48.642Z,52.82
2022-10-09T14:19:50.620Z,52.25
2022-10-09T14:24:52.062Z,52.41
2022-10-09T14:29:55.393Z,52.56
2022-10-09T14:34:59.003Z,52.68
2022-10-09T14:40:00.413Z,53.21
2022-10-09T14:45:01.943Z,53.84
2022-10-09T14:50:03.947Z,53.64
2022-10-09T14:55:05.797Z,54.33
2022-10-09T15:00:08.787Z,55.02
2022-10-09T15:05:10.571Z,55.05
2022-10-09T15:10:12.259Z,54.65
2022-10-09T15:15:13.812Z,55.16
2022-10-09T15:20:15.376Z,56.06
2022-10-09T15:25:16.872Z,56.42
2022-10-09T15:30:18.307Z,57.08
2022-10-09T15:35:20.167Z,56.93
2022-10-09T15:40:21.629Z,57.39
2022-10-09T15:45:23.050Z,58.13
2022-10-09T15:50:24.453Z,58.79
2022-10-09T15:55:25.860Z,59.59
2022-10-09T16:00:27.256Z,60.42
2022-10-09T16:05:28.661Z,61.07
2022-10-09T16:10:30.065Z,61.42
2022-10-09T16:15:31.465Z,62.57
2022-10-09T16:20:37.502Z,63.29
2022-10-09T16:25:40.162Z,63.56
2022-10-09T16:30:44.304Z,63.89
2022-10-09T16:35:46.381Z,64.29
2022-10-09T16:41:01.494Z,64.38
2022-10-09T16:46:23.367Z,64.54
2022-10-09T16:51:31.527Z,65.13
2022-10-09T16:56:36.208Z,65.68
2022-10-09T17:01:43.521Z,65.91
2022-10-09T17:06:46.432Z,66.61
2022-10-09T17:11:48.360Z,66.93
2022-10-09T17:16:49.848Z,67.36
2022-10-09T17:21:51.260Z,68.10
2022-10-09T17:26:53.076Z,68.66
2022-10-09T17:31:54.559Z,69.15
2022-10-09T17:36:56.551Z,69.36
2022-10-09T17:41:58.033Z,69.49
2022-10-09T17:47:00.810Z,70.03
2022-10-09T17:52:02.291Z,69.93
2022-10-09T17:57:06.846Z,70.41
2022-10-09T18:02:08.326Z,70.44
2022-10-09T18:07:09.760Z,71.13
2022-10-09T18:12:11.180Z,70.76
2022-10-09T18:17:12.633Z,70.98
2022-10-09T18:22:14.052Z,71.24
2022-10-09T18:27:15.489Z,71.21
2022-10-09T18:32:16.900Z,71.29
2022-10-09T18:37:19.965Z,71.40
2022-10-09T18:42:21.387Z,71.64
2022-10-09T18:47:28.290Z,71.72
2022-10-09T18:52:30.201Z,72.05
2022-10-09T18:57:33.288Z,72.48
2022-10-09T19:02:34.753Z,72.78
2022-10-09T19:07:36.287Z,72.79
2022-10-09T19:12:37.809Z,72.61
2022-10-09T19:17:39.237Z,72.72
2022-10-09T19:22:40.730Z,72.54
2022-10-09T19:27:42.140Z,72.92
2022-10-09T19:32:43.596Z,73.24
2022-10-09T19:37:45.049Z,73.62
2022-10-09T19:42:46.488Z,73.67
2022-10-09T19:47:52.300Z,73.90
2022-10-09T19:52:56.229Z,73.83
2022-10-09T19:57:57.969Z,73.88
2022-10-09T20:02:59.423Z,73.81
2022-10-09T20:08:01.318Z,74.22
2022-10-09T20:13:03.322Z,74.56
2022-10-09T20:18:04.785Z,75.05
2022-10-09T20:23:06.205Z,75.36
2022-10-09T20:28:07.623Z,75.56
2022-10-09T20:33:09.389Z,75.61
2022-10-09T20:38:10.824Z,75.96
2022-10-09T20:43:13.340Z,76.09
2022-10-09T20:48:14.833Z,76.04
2022-10-09T20:53:16.855Z,76.48
2022-10-09T20:58:19.354Z,76.15
2022-10-09T21:03:20.873Z,76.39
2022-10-09T21:08:22.411Z,76.61
2022-10-09T21:13:23.966Z,76.59
2022-10-09T21:18:25.444Z,76.74
2022-10-09T21:23:26.853Z,77.11
2022-10-09T21:28:28.639Z,77.20
2022-10-09T21:33:30.074Z,77.43
2022-10-09T21:38:33.002Z,77.56
2022-10-09T21:43:34.452Z,77.66
2022-10-09T21:48:35.866Z,77.43
2022-10-09T21:53:37.484Z,77.77
2022-10-09T21:58:40.301Z,78.38
2022-10-09T22:03:41.872Z,78.45
2022-10-09T22:08:43.683Z,78.71
2022-10-09T22:13:45.153Z,79.17
2022-10-09T22:18:46.576Z,79.42
2022-10-09T22:23:48.248Z,79.60
2022-10-09T22:28:50.360Z,79.38
2022-10-09T22:34:00.396Z,79.46
2022-10-09T22:39:05.092Z,79.32
2022-10-09T22:44:07.996Z,79.44
2022-10-09T22:49:12.511Z,79.42
2022-10-09T22:54:14.086Z,79.13
2022-10-09T22:59:17.941Z,79.28
2022-10-09T23:04:21.541Z,79.11
2022-10-09T23:09:25.578Z,79.30
2022-10-09T23:14:27.662Z,79.95
2022-10-09T23:19:29.064Z,80.05
2022-10-09T23:24:30.503Z,80.30
2022-10-09T23:29:31.953Z,79.93
2022-10-09T23:34:33.395Z,80.13
2022-10-09T23:39:34.939Z,80.61
2022-10-09T23:44:36.349Z,80.82
2022-10-09T23:49:37.844Z,81.05
2022-10-09T23:54:39.251Z,81.22
2022-10-09T23:59:41.627Z,81.59
